createdAt,value
2022-09-24T00:00:08.813Z,8.52
2022-09-24T00:05:08.245Z,7.65
2022-09-24T00:10:07.977Z,7.15
2022-09-24T00:15:07.686Z,7.93
2022-09-24T00:20:08.425Z,7.60
2022-09-24T00:25:14.116Z,7.22
2022-09-24T00:30:07.823Z,7.80
2022-09-24T00:35:08.574Z,6.95
2022-09-24T00:40:08.737Z,7.00
2022-09-24T00:45:08.493Z,7.28
2022-09-24T00:50:18.206Z,6.70
2022-09-24T00:55:07.933Z,7.47
2022-09-24T01:00:07.720Z,7.38
2022-09-24T01:05:08.425Z,7.32
2022-09-24T01:10:08.893Z,7.25
2022-09-24T01:15:08.601Z,7.10
2022-09-24T01:20:08.308Z,6.28
2022-09-24T01:25:08.011Z,6.60
2022-09-24T01:30:07.686Z,7.00
2022-09-24T01:35:18.375Z,0
2022-09-24T01:40:08.141Z,6.95
2022-09-24T01:45:07.931Z,6.68
2022-09-24T01:50:09.948Z,6.78
2022-09-24T01:55:07.628Z,6.68
2022-09-24T02:00:08.334Z,6.40
2022-09-24T02:05:08.271Z,6.78
2022-09-24T02:10:07.946Z,6.22
2022-09-24T02:15:07.671Z,6.55
2022-09-24T02:20:08.389Z,7.10
2022-09-24T02:25:08.067Z,6.85
2022-09-24T02:30:07.755Z,7.28
2022-09-24T02:35:08.442Z,6.40
2022-09-24T02:40:08.204Z,6.70
2022-09-24T02:45:07.955Z,7.20
2022-09-24T02:50:07.657Z,6.95
2022-09-24T02:55:08.365Z,6.18
2022-09-24T03:00:08.067Z,7.57
2022-09-24T03:05:07.803Z,7.50
2022-09-24T03:10:08.526Z,10.30
2022-09-24T03:15:08.198Z,7.63
2022-09-24T03:20:07.993Z,7.15
2022-09-24T03:25:08.022Z,7.28
2022-09-24T03:30:07.724Z,8.23
2022-09-24T03:35:08.442Z,8.27
2022-09-24T03:40:08.268Z,7.45
2022-09-24T03:45:08.110Z,8.80
2022-09-24T03:50:07.874Z,8.32
2022-09-24T03:55:08.623Z,7.78
2022-09-24T04:00:08.378Z,9.75
2022-09-24T04:05:02.144Z,8.18
2022-09-24T04:10:01.972Z,8.30
2022-09-24T04:15:01.878Z,7.45
2022-09-24T04:20:02.788Z,8.18
2022-09-24T04:25:02.570Z,8.45
2022-09-24T04:30:02.680Z,9.25
2022-09-24T04:35:07.371Z,8.60
2022-09-24T04:40:02.581Z,8.50
2022-09-24T04:45:02.605Z,9.07
2022-09-24T04:50:02.467Z,9.90
2022-09-24T04:55:02.282Z,10.90
2022-09-24T05:00:07.017Z,10.10
2022-09-24T05:05:01.971Z,9.73
2022-09-24T05:10:01.893Z,12.50
2022-09-24T05:15:02.797Z,11.15
2022-09-24T05:20:02.693Z,11.75
2022-09-24T05:25:02.634Z,12.15
2022-09-24T05:30:02.523Z,12.93
2022-09-24T05:35:02.495Z,12.93
2022-09-24T05:40:02.425Z,15.02
2022-09-24T05:45:02.435Z,11.32
2022-09-24T05:50:02.460Z,14.27
2022-09-24T05:55:02.443Z,13.43
2022-09-24T06:00:02.412Z,15.05
2022-09-24T06:05:02.441Z,15.00
2022-09-24T06:10:02.532Z,15.27
2022-09-24T06:15:02.689Z,13.95
2022-09-24T06:20:02.726Z,13.95
2022-09-24T06:25:02.623Z,12.85
2022-09-24T06:30:02.472Z,12.35
2022-09-24T06:35:02.401Z,13.48
2022-09-24T06:40:02.265Z,12.55
2022-09-24T06:45:02.116Z,12.35
2022-09-24T06:50:01.905Z,12.02
2022-09-24T06:55:02.773Z,12.65
2022-09-24T07:00:02.699Z,12.75
2022-09-24T07:05:02.594Z,12.20
2022-09-24T07:10:04.130Z,12.93
2022-09-24T07:15:02.052Z,12.93
2022-09-24T07:20:01.931Z,12.85
2022-09-24T07:25:02.765Z,12.23
2022-09-24T07:30:02.622Z,11.10
2022-09-24T07:35:02.431Z,11.20
2022-09-24T07:40:02.758Z,10.70
2022-09-24T07:45:02.661Z,8.95
2022-09-24T07:50:02.541Z,13.10
2022-09-24T07:55:02.452Z,11.25
2022-09-24T08:00:02.330Z,10.32
2022-09-24T08:05:02.078Z,11.07
2022-09-24T08:10:01.832Z,11.30
2022-09-24T08:15:02.681Z,12.25
2022-09-24T08:20:02.495Z,11.55
2022-09-24T08:25:02.193Z,12.65
2022-09-24T08:30:02.064Z,11.20
2022-09-24T08:35:01.995Z,9.68
2022-09-24T08:40:01.923Z,9.43
2022-09-24T08:45:02.866Z,10.55
2022-09-24T08:50:02.818Z,9.80
2022-09-24T08:55:02.721Z,9.27
2022-09-24T09:00:02.648Z,10.18
2022-09-24T09:05:02.407Z,10.98
2022-09-24T09:10:02.248Z,10.82
2022-09-24T09:15:02.067Z,9.75
2022-09-24T09:20:06.322Z,9.15
2022-09-24T09:25:04.259Z,9.65
2022-09-24T09:30:02.446Z,8.95
2022-09-24T09:35:02.293Z,7.55
2022-09-24T09:40:02.121Z,8.45
2022-09-24T09:45:01.948Z,7.20
2022-09-24T09:50:01.749Z,8.32
2022-09-24T09:55:02.708Z,8.70
2022-09-24T10:00:02.518Z,7.05
2022-09-24T10:05:02.390Z,7.50
2022-09-24T10:10:02.250Z,6.95
2022-09-24T10:15:12.028Z,0
2022-09-24T10:20:01.919Z,6.78
2022-09-24T10:25:02.748Z,8.02
2022-09-24T10:30:02.541Z,7.20
2022-09-24T10:35:02.387Z,7.85
2022-09-24T10:40:02.222Z,7.53
2022-09-24T10:45:02.014Z,6.97
2022-09-24T10:50:01.881Z,7.72
2022-09-24T10:55:02.730Z,7.95
2022-09-24T11:00:12.617Z,0
2022-09-24T11:05:02.675Z,7.10
2022-09-24T11:10:02.696Z,7.75
2022-09-24T11:15:02.795Z,10.10
2022-09-24T11:20:02.892Z,7.60
2022-09-24T11:25:02.941Z,8.77
2022-09-24T11:30:01.872Z,7.53
2022-09-24T11:35:02.937Z,7.25
2022-09-24T11:40:01.867Z,6.93
2022-09-24T11:45:02.871Z,6.82
2022-09-24T11:50:02.708Z,7.75
2022-09-24T11:55:02.713Z,8.00
2022-09-24T12:00:02.648Z,7.65
2022-09-24T12:05:02.517Z,7.05
2022-09-24T12:10:02.306Z,7.10
2022-09-24T12:15:02.175Z,7.03
2022-09-24T12:20:02.085Z,6.82
2022-09-24T12:25:01.947Z,7.68
2022-09-24T12:30:01.797Z,6.32
2022-09-24T12:35:02.814Z,6.72
2022-09-24T12:40:02.622Z,6.72
2022-09-24T12:45:02.535Z,6.10
2022-09-24T12:50:02.334Z,6.43
2022-09-24T12:55:02.281Z,7.72
2022-09-24T13:00:02.188Z,6.50
2022-09-24T13:05:02.003Z,8.70
2022-09-24T13:10:01.843Z,7.50
2022-09-24T13:15:02.723Z,9.18
2022-09-24T13:20:02.563Z,9.18
2022-09-24T13:25:02.406Z,8.32
2022-09-24T13:30:02.339Z,8.60
2022-09-24T13:35:02.392Z,7.85
2022-09-24T13:40:02.290Z,7.80
2022-09-24T13:45:05.016Z,8.75
2022-09-24T13:50:02.463Z,7.78
2022-09-24T13:55:02.443Z,6.93
2022-09-24T14:00:12.456Z,0
2022-09-24T14:05:02.362Z,7.65
2022-09-24T14:10:02.448Z,8.15
2022-09-24T14:15:02.558Z,10.73
2022-09-24T14:20:02.557Z,8.50
2022-09-24T14:25:02.547Z,7.05
2022-09-24T14:30:02.348Z,7.10
2022-09-24T14:35:02.279Z,8.00
2022-09-24T14:40:02.828Z,8.40
2022-09-24T14:45:01.798Z,8.15
2022-09-24T14:50:02.898Z,8.27
2022-09-24T14:55:01.781Z,8.27
2022-09-24T15:00:02.861Z,7.30
2022-09-24T15:10:02.310Z,9.25
2022-09-24T15:15:02.161Z,10.23
2022-09-24T15:20:02.050Z,8.05
2022-09-24T15:25:02.685Z,12.05
2022-09-24T15:30:02.800Z,12.90
2022-09-24T15:35:02.846Z,10.40
2022-09-24T15:40:02.740Z,10.15
2022-09-24T15:45:02.528Z,10.80
2022-09-24T15:50:02.387Z,9.55
2022-09-24T15:55:02.298Z,9.77
2022-09-24T16:00:02.787Z,7.63
2022-09-24T16:05:04.117Z,6.07
2022-09-24T16:10:02.250Z,6.65
2022-09-24T16:15:02.105Z,5.68
2022-09-24T16:20:02.008Z,4.80
2022-09-24T16:25:01.926Z,4.45
2022-09-24T16:30:02.864Z,3.78
2022-09-24T16:35:02.756Z,3.40
2022-09-24T16:40:02.852Z,3.17
2022-09-24T16:45:02.720Z,3.75
2022-09-24T16:50:02.679Z,4.05
2022-09-24T16:55:02.590Z,4.00
2022-09-24T17:00:02.449Z,3.75
2022-09-24T17:05:02.407Z,3.75
2022-09-24T17:10:02.401Z,5.07
2022-09-24T17:15:02.431Z,4.15
2022-09-24T17:20:02.253Z,3.70
2022-09-24T17:25:02.117Z,2.92
2022-09-24T17:30:02.454Z,1.95
2022-09-24T17:35:02.517Z,2.67
2022-09-24T17:40:02.677Z,2.80
2022-09-24T17:45:02.495Z,2.25
2022-09-24T17:50:02.315Z,3.10
2022-09-24T17:55:02.167Z,2.75
2022-09-24T18:00:01.995Z,2.88
2022-09-24T18:05:02.130Z,2.70
2022-09-24T18:10:02.163Z,2.60
2022-09-24T18:15:02.003Z,2.90
2022-09-24T18:20:01.815Z,3.00
2022-09-24T18:25:02.796Z,2.72
2022-09-24T18:30:02.962Z,2.55
2022-09-24T18:35:01.870Z,2.90
2022-09-24T18:40:02.770Z,3.53
2022-09-24T18:45:02.642Z,3.33
2022-09-24T18:50:02.704Z,3.53
2022-09-24T18:55:02.598Z,2.70
2022-09-24T19:00:02.378Z,2.95
2022-09-24T19:05:02.310Z,2.53
2022-09-24T19:10:02.443Z,2.58
2022-09-24T19:15:02.438Z,2.08
2022-09-24T19:20:02.438Z,2.85
2022-09-24T19:25:02.463Z,2.00
2022-09-24T19:30:02.331Z,2.10
2022-09-24T19:35:02.294Z,1.50
2022-09-24T19:40:02.375Z,1.90
2022-09-24T19:45:02.269Z,1.80
2022-09-24T19:50:02.054Z,1.92
2022-09-24T19:55:01.860Z,1.92
2022-09-24T20:00:02.749Z,2.05
2022-09-24T20:05:02.581Z,1.50
2022-09-24T20:10:02.513Z,1.80
2022-09-24T20:15:02.281Z,2.10
2022-09-24T20:20:02.140Z,1.60
2022-09-24T20:25:02.054Z,1.50
2022-09-24T20:30:01.983Z,1.58
2022-09-24T20:35:02.092Z,1.50
2022-09-24T20:40:01.995Z,2.00
2022-09-24T20:45:06.109Z,1.80
2022-09-24T20:50:02.261Z,1.60
2022-09-24T20:55:02.064Z,1.55
2022-09-24T21:00:02.468Z,1.67
2022-09-24T21:05:02.409Z,1.35
2022-09-24T21:10:02.408Z,1.70
2022-09-24T21:15:02.310Z,1.30
2022-09-24T21:20:02.081Z,1.35
2022-09-24T21:25:01.891Z,1.35
2022-09-24T21:30:02.648Z,1.45
2022-09-24T21:35:15.300Z,1.70
2022-09-24T21:40:08.071Z,1.15
2022-09-24T21:45:07.758Z,1.42
2022-09-24T21:50:08.440Z,1.50
2022-09-24T21:55:08.163Z,1.40
2022-09-24T22:00:07.868Z,1.52
2022-09-24T22:05:08.571Z,1.92
2022-09-24T22:10:08.292Z,1.52
2022-09-24T22:15:07.969Z,1.50
2022-09-24T22:20:07.675Z,1.58
2022-09-24T22:25:08.354Z,1.75
2022-09-24T22:30:08.064Z,1.67
2022-09-24T22:35:17.734Z,0
2022-09-24T22:40:08.516Z,1.48
2022-09-24T22:45:08.237Z,1.45
2022-09-24T22:50:07.926Z,2.00
2022-09-24T22:55:08.653Z,1.85
2022-09-24T23:01:01.536Z,1.73
2022-09-24T23:05:08.410Z,2.00
2022-09-24T23:10:08.247Z,1.85
2022-09-24T23:15:07.939Z,1.60
2022-09-24T23:20:07.642Z,1.70
2022-09-24T23:25:08.390Z,1.60
2022-09-24T23:30:08.050Z,2.00
2022-09-24T23:35:07.705Z,1.85
2022-09-24T23:40:08.498Z,1.60
2022-09-24T23:45:08.181Z,2.00
2022-09-24T23:50:07.874Z,2.35
2022-09-24T23:55:08.571Z,1.92
